Time;durP1;ratioP1;P1;durP2;ratioP2;P2;SDS_P1;SDS_P2;PMS_P1;PMS_P2;Temp;Humidity;BMP_temperature;BMP_pressure;BME280_temperature;BME280_humidity;BME280_pressure;Samples;Min_cycle;Max_cycle;Signal;HPM_P1;HPM_P2
2022/12/07 00:01:13;;;;;;;2.22;1.30;;;9.50;38.90;;;;;;5031120;28;20254;-73
2022/12/07 00:03:41;;;;;;;2.72;1.40;;;9.60;38.10;;;;;;5032132;28;20272;-72
2022/12/07 00:06:08;;;;;;;1.77;1.17;;;9.60;38.30;;;;;;5029275;28;20185;-72
2022/12/07 00:08:35;;;;;;;1.90;1.27;;;9.50;38.40;;;;;;5034813;28;20310;-72
2022/12/07 00:11:05;;;;;;;2.28;1.40;;;9.70;38.10;;;;;;5031009;28;20748;-72
2022/12/07 00:13:33;;;;;;;1.70;1.20;;;9.70;37.70;;;;;;5031169;28;20157;-72
2022/12/07 00:16:04;;;;;;;1.70;1.10;;;9.30;38.60;;;;;;5030761;28;20235;-72
2022/12/07 00:18:30;;;;;;;1.80;1.20;;;9.50;37.90;;;;;;5030469;28;20176;-72
2022/12/07 00:21:26;;;;;;;1.70;1.00;;;8.90;39.70;;;;;;5030982;28;20540;-72
2022/12/07 00:23:53;;;;;;;2.50;1.83;;;9.10;39.10;;;;;;4958347;28;20435;-72
2022/12/07 00:26:22;;;;;;;1.70;1.20;;;8.90;39.80;;;;;;4949826;29;20568;-71
2022/12/07 00:28:49;;;;;;;1.80;1.20;;;8.30;41.30;;;;;;4949090;29;20734;-71
2022/12/07 00:31:17;;;;;;;1.90;1.35;;;8.00;43.40;;;;;;4949777;29;20215;-72
2022/12/07 00:33:43;;;;;;;1.60;1.00;;;8.10;42.60;;;;;;4949510;28;20571;-72
2022/12/07 00:36:12;;;;;;;1.80;1.20;;;8.00;42.80;;;;;;4952810;28;20191;-72
2022/12/07 00:38:39;;;;;;;1.80;1.20;;;8.20;42.70;;;;;;4952302;29;20190;-72
2022/12/07 00:41:11;;;;;;;1.70;1.20;;;8.50;42.00;;;;;;4953922;29;20235;-72
2022/12/07 00:43:38;;;;;;;3.35;1.83;;;8.90;40.30;;;;;;4952495;28;20770;-72
2022/12/07 00:46:03;;;;;;;1.80;1.20;;;9.10;39.60;;;;;;4954277;29;20163;-72
2022/12/07 00:48:29;;;;;;;1.90;1.30;;;9.20;39.30;;;;;;4953000;29;20192;-72
2022/12/07 00:50:55;;;;;;;1.70;1.10;;;9.40;38.60;;;;;;4953702;29;20219;-72
2022/12/07 00:53:20;;;;;;;1.70;1.27;;;8.90;39.10;;;;;;4952078;29;20192;-72
2022/12/07 00:55:46;;;;;;;1.70;1.20;;;8.30;41.40;;;;;;4962009;28;20235;-72
2022/12/07 00:58:12;;;;;;;1.70;1.10;;;8.10;42.10;;;;;;4953465;29;20183;-72
2022/12/07 01:00:39;;;;;;;1.80;1.20;;;8.40;41.90;;;;;;5007349;28;20935;-72
2022/12/07 01:03:06;;;;;;;2.38;1.67;;;8.00;41.90;;;;;;5033771;28;20173;-71
2022/12/07 01:05:32;;;;;;;1.80;1.20;;;7.50;45.40;;;;;;5032217;28;20188;-72
2022/12/07 01:07:57;;;;;;;1.70;1.10;;;7.60;44.70;;;;;;5034019;28;20283;-72
2022/12/07 01:10:23;;;;;;;1.90;1.27;;;7.60;44.90;;;;;;5015343;28;20238;-72
2022/12/07 01:12:49;;;;;;;1.67;1.10;;;7.70;44.20;;;;;;5032736;28;20196;-72
2022/12/07 01:15:15;;;;;;;1.70;1.00;;;7.60;46.10;;;;;;5032667;28;20234;-71
2022/12/07 01:17:40;;;;;;;2.75;1.50;;;7.60;45.40;;;;;;5040266;28;20180;-72
2022/12/07 01:20:07;;;;;;;1.80;1.20;;;7.40;46.10;;;;;;5033475;28;20691;-71
2022/12/07 01:22:40;;;;;;;1.90;1.40;;;7.50;45.40;;;;;;5033897;28;20256;-72
2022/12/07 01:25:07;;;;;;;1.70;1.10;;;7.60;45.50;;;;;;5031887;28;20752;-72
2022/12/07 01:27:34;;;;;;;1.70;1.20;;;7.50;45.80;;;;;;5036406;28;20196;-72
2022/12/07 01:30:01;;;;;;;1.90;1.30;;;7.80;44.80;;;;;;5033260;28;20735;-72
2022/12/07 01:32:26;;;;;;;1.70;1.10;;;8.00;43.70;;;;;;5033576;28;20258;-72
2022/12/07 01:34:52;;;;;;;2.70;1.60;;;8.20;44.30;;;;;;5015940;28;20188;-72
2022/12/07 01:37:18;;;;;;;1.90;1.30;;;8.30;43.30;;;;;;5032287;28;20458;-72
2022/12/07 01:39:43;;;;;;;1.70;1.17;;;8.50;42.50;;;;;;5033564;28;20211;-72
2022/12/07 01:42:12;;;;;;;2.00;1.27;;;8.20;43.00;;;;;;5033064;28;20264;-72
2022/12/07 01:45:15;;;;;;;1.70;1.10;;;8.40;43.00;;;;;;5032608;28;20184;-71
2022/12/07 01:47:43;;;;;;;2.88;1.38;;;8.20;42.70;;;;;;5034693;28;20216;-72
2022/12/07 01:50:09;;;;;;;2.60;1.30;;;8.20;43.40;;;;;;5032602;28;20589;-72
2022/12/07 01:52:36;;;;;;;1.70;1.13;;;8.50;42.40;;;;;;5032882;28;20216;-72
2022/12/07 01:55:06;;;;;;;1.85;1.30;;;8.40;41.90;;;;;;5032088;28;20196;-71
2022/12/07 01:57:34;;;;;;;1.70;1.10;;;8.10;43.10;;;;;;5025945;28;20586;-71
2022/12/07 02:00:00;;;;;;;2.15;1.52;;;8.50;43.70;;;;;;5034293;28;20211;-72
2022/12/07 02:02:31;;;;;;;1.70;1.10;;;8.10;42.90;;;;;;5032610;28;20199;-72
2022/12/07 02:05:00;;;;;;;1.85;1.25;;;7.80;45.70;;;;;;5032112;28;20648;-71
2022/12/07 02:07:26;;;;;;;1.67;1.10;;;7.80;44.10;;;;;;5031719;28;20184;-72
2022/12/07 02:09:52;;;;;;;1.70;1.10;;;7.70;44.80;;;;;;5033056;28;20204;-72
2022/12/07 02:12:19;;;;;;;1.77;1.13;;;8.20;43.50;;;;;;5032626;28;20598;-71
2022/12/07 02:14:45;;;;;;;1.70;1.15;;;8.50;42.50;;;;;;5033036;28;20169;-71
2022/12/07 02:17:28;;;;;;;2.43;1.37;;;8.20;42.80;;;;;;5035302;28;20191;-72
2022/12/07 02:20:11;;;;;;;1.70;1.10;;;8.10;43.50;;;;;;5032690;28;20197;-72
2022/12/07 02:22:47;;;;;;;2.20;1.58;;;7.90;44.20;;;;;;5032596;28;20184;-72
2022/12/07 02:25:16;;;;;;;1.60;1.10;;;8.10;43.70;;;;;;5028834;28;20191;-72
2022/12/07 02:27:47;;;;;;;2.35;1.58;;;8.30;43.10;;;;;;5034945;28;20212;-72
2022/12/07 02:30:19;;;;;;;1.70;1.10;;;8.40;42.80;;;;;;5031387;28;20227;-72
2022/12/07 02:33:08;;;;;;;1.70;1.08;;;8.40;42.90;;;;;;5032253;28;20204;-72
2022/12/07 02:35:50;;;;;;;1.73;1.13;;;8.50;42.30;;;;;;5031893;28;20188;-72
2022/12/07 02:38:29;;;;;;;1.70;1.10;;;8.30;42.80;;;;;;5032939;28;20585;-72
2022/12/07 02:41:13;;;;;;;1.77;1.20;;;8.30;43.00;;;;;;5033275;28;20671;-72
2022/12/07 02:43:44;;;;;;;1.70;1.10;;;8.20;44.20;;;;;;5025714;28;20232;-72
2022/12/07 02:46:15;;;;;;;2.10;1.30;;;8.40;43.60;;;;;;5030992;28;20224;-71
2022/12/07 02:48:42;;;;;;;2.03;1.38;;;8.00;43.50;;;;;;5033708;28;20590;-71
2022/12/07 02:51:08;;;;;;;1.70;1.10;;;7.70;45.10;;;;;;5031251;28;20593;-71
2022/12/07 02:53:37;;;;;;;1.70;1.10;;;7.80;44.70;;;;;;5032165;28;20176;-71
2022/12/07 02:56:41;;;;;;;1.70;1.20;;;7.40;46.10;;;;;;5032329;28;20680;-71
2022/12/07 02:59:47;;;;;;;1.90;1.23;;;7.50;46.50;;;;;;5024944;28;20216;-71
2022/12/07 03:02:34;;;;;;;1.73;1.17;;;7.90;44.90;;;;;;5027452;28;20262;-72
2022/12/07 03:05:15;;;;;;;2.00;1.40;;;7.80;45.00;;;;;;5032069;28;20180;-72
2022/12/07 03:08:08;;;;;;;1.80;1.20;;;7.70;45.10;;;;;;5025338;28;20563;-72
2022/12/07 03:10:43;;;;;;;1.70;1.10;;;7.60;46.10;;;;;;5031644;28;20201;-72
2022/12/07 03:13:29;;;;;;;1.60;1.05;;;7.30;47.30;;;;;;5031832;28;20199;-72
2022/12/07 03:16:36;;;;;;;2.83;1.52;;;7.50;47.40;;;;;;5034768;28;20277;-72
2022/12/07 03:19:22;;;;;;;1.75;1.10;;;8.00;45.20;;;;;;4950348;29;20218;-72
2022/12/07 03:21:59;;;;;;;1.80;1.20;;;7.60;46.40;;;;;;4957387;28;20295;-71
2022/12/07 03:24:30;;;;;;;1.85;1.15;;;7.60;46.60;;;;;;4963454;28;20634;-71
2022/12/07 03:27:22;;;;;;;1.70;1.20;;;7.80;46.40;;;;;;4966264;28;20206;-72
2022/12/07 03:30:10;;;;;;;1.70;1.10;;;7.70;46.20;;;;;;4963365;28;20707;-72
2022/12/07 03:32:41;;;;;;;1.67;1.10;;;7.90;44.80;;;;;;4948628;29;20694;-71
2022/12/07 03:35:21;;;;;;;1.70;1.08;;;7.70;45.90;;;;;;4966956;28;20721;-71
2022/12/07 03:38:31;;;;;;;1.80;1.20;;;7.40;46.20;;;;;;4970458;28;20189;-71
2022/12/07 03:41:14;;;;;;;1.90;1.25;;;6.70;48.10;;;;;;4954837;28;20297;-72
2022/12/07 03:43:41;;;;;;;1.77;1.10;;;6.70;48.20;;;;;;4950189;28;20219;-72
2022/12/07 03:46:29;;;;;;;1.80;1.20;;;7.50;46.00;;;;;;4959571;28;20183;-72
2022/12/07 03:49:07;;;;;;;1.70;1.00;;;7.40;44.10;;;;;;4942615;29;20211;-72
2022/12/07 03:51:42;;;;;;;1.75;1.08;;;7.60;42.30;;;;;;4949904;29;20293;-72
2022/12/07 03:54:23;;;;;;;1.80;1.20;;;7.50;41.00;;;;;;5030263;28;20652;-72
2022/12/07 03:56:51;;;;;;;1.70;1.10;;;7.90;40.10;;;;;;5030119;28;20659;-72
2022/12/07 03:59:17;;;;;;;1.70;1.00;;;8.40;39.10;;;;;;5030846;28;20231;-72
2022/12/07 04:01:44;;;;;;;2.50;1.58;;;8.50;39.10;;;;;;5036159;28;20188;-72
2022/12/07 04:04:10;;;;;;;1.70;1.00;;;8.50;37.50;;;;;;5030395;28;20184;-72
2022/12/07 04:06:36;;;;;;;1.90;1.30;;;8.70;37.80;;;;;;5031454;28;20180;-71
2022/12/07 04:09:02;;;;;;;1.70;1.10;;;8.50;38.70;;;;;;5032247;28;20336;-71
2022/12/07 04:11:28;;;;;;;2.78;1.25;;;8.50;39.40;;;;;;5033957;28;20247;-71
2022/12/07 04:16:38;;;;;;;1.70;1.10;;;8.80;38.60;;;;;;5035033;28;20604;-72
2022/12/07 04:19:03;;;;;;;1.70;1.20;;;8.80;38.80;;;;;;5017069;28;20271;-72
2022/12/07 04:21:29;;;;;;;1.93;1.43;;;9.20;38.00;;;;;;5035507;28;20524;-72
2022/12/07 04:23:54;;;;;;;1.70;1.10;;;9.20;37.80;;;;;;5034364;28;20255;-72
2022/12/07 04:26:20;;;;;;;1.70;1.13;;;9.20;38.00;;;;;;5034748;28;20255;-72
2022/12/07 04:28:46;;;;;;;1.70;1.03;;;9.10;38.00;;;;;;5034317;28;20203;-71
2022/12/07 04:31:11;;;;;;;2.27;1.40;;;9.10;37.90;;;;;;5035418;28;20660;-71
2022/12/07 04:33:37;;;;;;;1.87;1.10;;;9.20;38.10;;;;;;5034573;28;20164;-72
2022/12/07 04:36:03;;;;;;;1.80;1.20;;;9.20;38.70;;;;;;5034098;28;20204;-72
2022/12/07 04:38:28;;;;;;;1.80;1.20;;;8.80;38.70;;;;;;5034384;28;20255;-72
2022/12/07 04:40:54;;;;;;;1.70;1.03;;;8.70;38.60;;;;;;5035258;28;20477;-72
2022/12/07 04:43:19;;;;;;;1.83;1.20;;;8.70;38.50;;;;;;5034208;28;20310;-72
2022/12/07 04:45:47;;;;;;;1.80;1.20;;;8.70;38.60;;;;;;5033527;28;20200;-72
2022/12/07 04:48:12;;;;;;;2.53;1.67;;;8.80;38.00;;;;;;5034354;28;20172;-72
2022/12/07 04:50:38;;;;;;;1.80;1.20;;;8.90;38.20;;;;;;5035836;28;20220;-71
2022/12/07 04:53:04;;;;;;;1.70;1.10;;;8.70;39.10;;;;;;5034651;28;20754;-72
2022/12/07 04:55:29;;;;;;;1.70;1.10;;;8.50;39.80;;;;;;5032889;28;20327;-71
2022/12/07 04:57:55;;;;;;;2.10;1.37;;;8.30;40.40;;;;;;5034153;28;20564;-71
2022/12/07 05:00:20;;;;;;;1.80;1.10;;;8.70;40.90;;;;;;5034109;28;20476;-72
2022/12/07 05:02:46;;;;;;;1.90;1.30;;;8.50;40.10;;;;;;5035596;28;20195;-71
2022/12/07 05:05:12;;;;;;;1.70;1.10;;;8.70;39.30;;;;;;5033082;28;20180;-71
2022/12/07 05:07:37;;;;;;;1.70;1.00;;;8.70;39.30;;;;;;5032842;28;20253;-71
2022/12/07 05:10:03;;;;;;;1.70;1.10;;;8.90;39.60;;;;;;5033872;28;20287;-71
2022/12/07 05:12:28;;;;;;;1.93;1.10;;;8.40;39.40;;;;;;5034184;28;20208;-71
2022/12/07 05:14:54;;;;;;;1.70;1.00;;;8.50;40.10;;;;;;5033638;28;20499;-71
2022/12/07 05:17:20;;;;;;;2.00;1.30;;;8.70;38.90;;;;;;5032350;28;20176;-71
2022/12/07 05:19:45;;;;;;;1.80;1.13;;;8.70;38.70;;;;;;5033782;28;20558;-72
2022/12/07 05:22:11;;;;;;;1.70;1.10;;;8.80;38.30;;;;;;5033053;28;20196;-71
2022/12/07 05:24:36;;;;;;;1.83;1.23;;;9.00;38.20;;;;;;5035250;28;20215;-71
2022/12/07 05:27:02;;;;;;;1.80;1.10;;;8.60;38.90;;;;;;5033392;28;20187;-71
2022/12/07 05:29:27;;;;;;;2.57;1.53;;;8.20;39.90;;;;;;5032877;28;20719;-72
2022/12/07 05:31:53;;;;;;;1.63;1.00;;;8.10;40.60;;;;;;5033938;28;20205;-71
2022/12/07 05:34:19;;;;;;;2.83;1.70;;;8.40;40.90;;;;;;5035552;28;20177;-71
2022/12/07 05:36:44;;;;;;;1.70;1.10;;;8.40;40.40;;;;;;5033337;28;20206;-71
2022/12/07 05:39:10;;;;;;;1.70;1.00;;;8.60;40.40;;;;;;5032130;28;20247;-72
2022/12/07 05:44:20;;;;;;;1.90;1.20;;;8.30;39.50;;;;;;5034857;28;20242;-71
2022/12/07 05:46:46;;;;;;;1.70;1.10;;;8.70;39.40;;;;;;5035698;28;20173;-71
2022/12/07 05:49:11;;;;;;;1.70;1.10;;;8.40;38.60;;;;;;5030857;28;20316;-71
2022/12/07 05:51:37;;;;;;;1.70;1.00;;;8.50;38.10;;;;;;5031017;28;20574;-71
2022/12/07 05:54:03;;;;;;;1.80;1.20;;;8.30;38.40;;;;;;5015266;28;20226;-72
2022/12/07 05:56:28;;;;;;;1.70;1.00;;;8.20;38.40;;;;;;5034402;28;20188;-71
2022/12/07 06:01:38;;;;;;;1.80;1.10;;;7.90;38.70;;;;;;5029939;28;20192;-71
2022/12/07 06:04:03;;;;;;;2.57;1.30;;;7.90;38.40;;;;;;5030615;28;20185;-71
2022/12/07 06:06:29;;;;;;;1.77;1.10;;;8.00;38.40;;;;;;5030743;28;20180;-71
2022/12/07 06:08:55;;;;;;;1.90;1.10;;;7.90;38.40;;;;;;5031228;28;20594;-71
2022/12/07 06:14:04;;;;;;;3.75;1.52;;;7.70;38.90;;;;;;5031151;28;20180;-71
2022/12/07 06:16:30;;;;;;;2.43;1.40;;;7.40;39.80;;;;;;5031705;28;20542;-72
2022/12/07 06:18:55;;;;;;;1.90;1.20;;;7.10;40.80;;;;;;5033253;28;20540;-73
2022/12/07 06:21:21;;;;;;;3.17;2.23;;;7.10;40.60;;;;;;5032638;28;20250;-72
2022/12/07 06:23:47;;;;;;;1.80;1.00;;;7.10;40.60;;;;;;5035073;28;20165;-81
2022/12/07 06:26:13;;;;;;;1.90;1.20;;;6.70;41.30;;;;;;5042389;28;20180;-80
2022/12/07 06:28:40;;;;;;;1.77;1.10;;;6.10;43.20;;;;;;5023297;28;20272;-82
2022/12/07 06:31:06;;;;;;;1.90;1.25;;;6.20;43.90;;;;;;5033458;28;20664;-75
2022/12/07 06:33:32;;;;;;;1.80;1.10;;;6.10;43.40;;;;;;5031525;28;20169;-71
2022/12/07 06:35:58;;;;;;;1.80;1.10;;;6.20;43.00;;;;;;5032548;28;20311;-74
2022/12/07 06:38:24;;;;;;;1.80;1.10;;;6.30;42.40;;;;;;5032808;28;20257;-72
2022/12/07 06:40:50;;;;;;;1.80;1.10;;;6.50;41.60;;;;;;5031001;28;20199;-71
2022/12/07 06:43:15;;;;;;;1.80;1.00;;;6.70;41.00;;;;;;5032655;28;20192;-72
2022/12/07 06:45:41;;;;;;;1.77;1.10;;;6.80;39.10;;;;;;5033309;28;20583;-73
2022/12/07 06:48:07;;;;;;;1.80;1.10;;;7.10;38.40;;;;;;5033339;28;20215;-72
2022/12/07 06:50:33;;;;;;;2.53;1.33;;;7.10;38.20;;;;;;5031047;28;20247;-72
2022/12/07 06:52:58;;;;;;;1.80;1.10;;;6.80;39.10;;;;;;5031861;28;20219;-72
2022/12/07 06:55:24;;;;;;;1.80;1.10;;;7.10;38.40;;;;;;5033503;28;20878;-73
2022/12/07 06:57:49;;;;;;;1.83;1.10;;;7.10;38.10;;;;;;5033429;28;20592;-73
2022/12/07 07:00:16;;;;;;;2.30;1.30;;;6.90;39.10;;;;;;5032961;28;20203;-72
2022/12/07 07:02:41;;;;;;;2.08;1.45;;;6.80;39.90;;;;;;5033148;28;20172;-72
2022/12/07 07:05:07;;;;;;;1.80;1.10;;;7.10;38.40;;;;;;5032010;28;20287;-72
2022/12/07 07:07:33;;;;;;;2.63;1.67;;;7.20;36.40;;;;;;5033713;28;20176;-73
2022/12/07 07:09:58;;;;;;;1.90;1.20;;;7.40;35.80;;;;;;5034409;28;20196;-72
2022/12/07 07:12:24;;;;;;;1.80;1.00;;;7.50;35.10;;;;;;5034981;28;20215;-72
2022/12/07 07:14:49;;;;;;;2.00;1.30;;;7.40;35.50;;;;;;5033201;28;20192;-72
2022/12/07 07:17:15;;;;;;;1.80;1.10;;;7.10;37.20;;;;;;5028631;28;20177;-76
2022/12/07 07:19:41;;;;;;;2.53;1.53;;;7.00;38.50;;;;;;5014745;28;20208;-72
2022/12/07 07:22:06;;;;;;;2.73;1.40;;;7.20;38.10;;;;;;5029458;28;20180;-73
2022/12/07 07:24:32;;;;;;;1.90;1.30;;;7.30;37.80;;;;;;5038867;28;20557;-72
2022/12/07 07:26:57;;;;;;;1.77;1.10;;;7.20;38.90;;;;;;5022347;28;20189;-72
2022/12/07 07:29:23;;;;;;;2.77;1.30;;;7.00;38.90;;;;;;5031866;28;20180;-73
2022/12/07 07:31:48;;;;;;;1.90;1.10;;;6.70;39.70;;;;;;5032041;28;20207;-73
2022/12/07 07:34:14;;;;;;;3.53;1.83;;;6.70;40.70;;;;;;5031628;28;20663;-72
2022/12/07 07:36:40;;;;;;;2.60;1.90;;;6.20;41.50;;;;;;5030438;28;20694;-73
2022/12/07 07:39:06;;;;;;;2.40;1.40;;;6.40;42.40;;;;;;5031422;28;20176;-73
2022/12/07 07:41:32;;;;;;;2.00;1.40;;;6.80;41.90;;;;;;5031433;28;20212;-74
2022/12/07 07:43:58;;;;;;;1.80;1.20;;;7.30;40.10;;;;;;5025413;28;20176;-73
2022/12/07 07:46:23;;;;;;;2.40;1.50;;;7.50;39.60;;;;;;5030974;28;20572;-73
2022/12/07 07:48:49;;;;;;;1.70;1.10;;;7.60;39.10;;;;;;5031618;28;20180;-73
2022/12/07 07:51:14;;;;;;;3.30;2.30;;;8.00;38.50;;;;;;5026762;28;20680;-73
2022/12/07 07:53:40;;;;;;;2.20;1.47;;;7.50;38.70;;;;;;5031632;28;20177;-73
2022/12/07 07:56:06;;;;;;;1.90;1.20;;;7.60;39.10;;;;;;5028008;28;20176;-74
2022/12/07 07:58:31;;;;;;;2.33;1.50;;;7.60;39.40;;;;;;5031821;28;20180;-73
2022/12/07 08:00:57;;;;;;;2.67;1.53;;;7.30;39.60;;;;;;5032273;28;20195;-72
2022/12/07 08:03:22;;;;;;;1.70;1.10;;;7.10;40.20;;;;;;5028770;28;20610;-71
2022/12/07 08:05:48;;;;;;;1.80;1.20;;;7.10;40.20;;;;;;5029855;28;20262;-72
2022/12/07 08:08:14;;;;;;;2.40;1.40;;;7.10;39.80;;;;;;5027162;28;20192;-72
2022/12/07 08:10:39;;;;;;;1.70;1.10;;;6.80;40.60;;;;;;5030233;28;20240;-74
2022/12/07 08:13:11;;;;;;;2.33;1.30;;;7.00;40.30;;;;;;5031250;28;20208;-73
2022/12/07 08:15:38;;;;;;;1.70;1.10;;;6.90;40.00;;;;;;5032011;28;20181;-74
2022/12/07 08:18:04;;;;;;;3.35;1.58;;;6.90;40.50;;;;;;5033304;28;20191;-72
2022/12/07 08:20:31;;;;;;;1.83;1.10;;;6.90;40.80;;;;;;5030448;28;20212;-73
2022/12/07 08:22:57;;;;;;;1.67;1.10;;;7.30;40.30;;;;;;5031235;28;20177;-74
2022/12/07 08:25:22;;;;;;;1.87;1.27;;;7.60;39.50;;;;;;5033957;28;20229;-72
2022/12/07 08:27:49;;;;;;;1.90;1.33;;;7.60;39.30;;;;;;5027543;28;20256;-72
2022/12/07 08:30:15;;;;;;;2.95;1.95;;;8.30;39.10;;;;;;5029352;28;20837;-73
2022/12/07 08:32:41;;;;;;;1.70;1.10;;;7.90;38.80;;;;;;5030940;28;20208;-72
2022/12/07 08:35:07;;;;;;;1.75;1.30;;;7.70;39.80;;;;;;5030582;28;20442;-71
2022/12/07 08:37:33;;;;;;;2.28;1.30;;;7.50;39.00;;;;;;5031037;28;20693;-72
2022/12/07 08:39:59;;;;;;;5.13;1.40;;;7.80;39.00;;;;;;5031027;28;20196;-71
2022/12/07 08:42:29;;;;;;;5.93;1.97;;;7.40;39.00;;;;;;5025216;28;20200;-72
2022/12/07 08:44:55;;;;;;;1.60;1.10;;;7.90;39.70;;;;;;5012617;28;20181;-72
2022/12/07 08:47:21;;;;;;;1.65;1.00;;;8.00;38.60;;;;;;5030843;28;20185;-72
2022/12/07 08:49:49;;;;;;;4.00;2.43;;;8.30;38.60;;;;;;5040636;28;20197;-72
2022/12/07 08:52:15;;;;;;;1.83;1.23;;;7.60;39.10;;;;;;5038121;28;20246;-72
2022/12/07 08:54:42;;;;;;;2.53;1.52;;;7.50;40.00;;;;;;5030100;28;20184;-73
2022/12/07 08:57:09;;;;;;;1.80;1.20;;;7.90;40.50;;;;;;5033434;28;20206;-72
2022/12/07 08:59:36;;;;;;;1.88;1.30;;;7.90;39.60;;;;;;5029107;28;20204;-71
2022/12/07 09:02:02;;;;;;;1.70;1.20;;;8.10;39.30;;;;;;5032655;28;20722;-76
2022/12/07 09:04:28;;;;;;;1.70;1.10;;;8.30;38.20;;;;;;5033455;28;20228;-73
2022/12/07 09:06:55;;;;;;;3.37;2.00;;;8.60;37.30;;;;;;5034344;28;20176;-72
2022/12/07 09:09:20;;;;;;;2.00;1.30;;;8.90;35.70;;;;;;5038317;28;20661;-72
2022/12/07 09:11:46;;;;;;;2.27;1.30;;;8.90;35.30;;;;;;5033893;28;20283;-72
2022/12/07 09:14:13;;;;;;;2.73;1.40;;;8.90;35.40;;;;;;5032762;28;20180;-73
2022/12/07 09:16:38;;;;;;;2.78;1.33;;;9.20;35.00;;;;;;5034692;28;20469;-72
2022/12/07 09:19:04;;;;;;;2.00;1.47;;;9.20;34.80;;;;;;5033499;28;20176;-72
2022/12/07 09:21:30;;;;;;;1.70;1.13;;;9.30;33.40;;;;;;5014819;28;21183;-71
2022/12/07 09:23:56;;;;;;;2.10;1.47;;;9.20;34.00;;;;;;5035800;28;20188;-72
2022/12/07 09:26:21;;;;;;;1.70;1.10;;;9.30;34.20;;;;;;5032887;28;20177;-72
2022/12/07 09:28:47;;;;;;;1.80;1.20;;;8.90;34.90;;;;;;5039126;28;20652;-72
2022/12/07 09:31:12;;;;;;;1.80;1.20;;;8.70;36.00;;;;;;5033193;28;20247;-73
2022/12/07 09:33:38;;;;;;;1.90;1.30;;;8.50;36.40;;;;;;5032966;28;20215;-72
2022/12/07 09:36:05;;;;;;;2.00;1.30;;;8.30;36.70;;;;;;5033327;28;20246;-73
2022/12/07 09:38:31;;;;;;;2.00;1.30;;;8.30;37.40;;;;;;5034822;28;20427;-72
2022/12/07 09:40:56;;;;;;;1.90;1.33;;;8.70;38.40;;;;;;5032678;28;20214;-72
2022/12/07 09:43:24;;;;;;;3.10;1.40;;;8.40;39.20;;;;;;5033419;28;20193;-72
2022/12/07 09:45:54;;;;;;;1.92;1.20;;;8.60;37.10;;;;;;5032243;28;20177;-72
2022/12/07 09:48:40;;;;;;;1.70;1.10;;;8.60;36.60;;;;;;5035677;28;20173;-73
2022/12/07 09:51:19;;;;;;;2.65;1.85;;;8.20;37.30;;;;;;5032113;28;20208;-72
2022/12/07 09:53:45;;;;;;;1.80;1.13;;;7.30;39.80;;;;;;5033018;28;20541;-72
2022/12/07 09:56:15;;;;;;;1.77;1.17;;;8.20;39.20;;;;;;5030547;28;20171;-73
2022/12/07 09:58:42;;;;;;;1.70;1.10;;;8.50;38.00;;;;;;5030042;28;20173;-74
2022/12/07 10:01:08;;;;;;;1.70;1.10;;;8.70;37.60;;;;;;5026973;28;20332;-73
2022/12/07 10:03:37;;;;;;;2.20;1.40;;;8.20;37.90;;;;;;5030732;28;20219;-72
2022/12/07 10:06:05;;;;;;;1.80;1.20;;;8.40;37.10;;;;;;5038070;28;20264;-73
2022/12/07 10:08:31;;;;;;;2.03;1.45;;;7.40;38.60;;;;;;5029471;28;20172;-73
2022/12/07 10:10:57;;;;;;;2.33;1.65;;;7.60;38.70;;;;;;5018357;28;20211;-73
2022/12/07 10:13:36;;;;;;;1.70;1.10;;;7.70;38.30;;;;;;5039014;28;20209;-73
2022/12/07 10:16:02;;;;;;;1.70;1.10;;;7.60;38.60;;;;;;5038366;28;20160;-72
2022/12/07 10:18:35;;;;;;;2.08;1.30;;;7.10;40.60;;;;;;5035483;28;20186;-73
2022/12/07 10:21:17;;;;;;;1.70;1.10;;;8.10;37.50;;;;;;5030476;28;20204;-73
2022/12/07 10:24:25;;;;;;;1.95;1.30;;;8.80;35.00;;;;;;5026673;28;20306;-73
2022/12/07 10:26:52;;;;;;;1.92;1.40;;;8.60;35.00;;;;;;5026974;28;20283;-73
2022/12/07 10:29:44;;;;;;;2.17;1.55;;;8.20;37.20;;;;;;5032243;28;20189;-73
2022/12/07 10:32:16;;;;;;;1.90;1.30;;;8.20;37.20;;;;;;5026321;28;20234;-72
2022/12/07 10:34:42;;;;;;;1.80;1.20;;;8.70;34.20;;;;;;5031414;28;20172;-74
2022/12/07 10:37:16;;;;;;;1.80;1.20;;;8.70;33.50;;;;;;5032536;28;20667;-73
2022/12/07 10:39:46;;;;;;;1.80;1.20;;;8.80;32.30;;;;;;5014560;28;20200;-73
2022/12/07 10:42:25;;;;;;;1.70;1.08;;;8.60;32.10;;;;;;5030458;28;20192;-74
2022/12/07 10:45:15;;;;;;;1.80;1.20;;;8.60;33.30;;;;;;5032369;28;20180;-73
2022/12/07 10:47:59;;;;;;;1.70;1.10;;;8.80;33.80;;;;;;5031628;28;20172;-73
2022/12/07 10:50:30;;;;;;;1.83;1.17;;;8.20;33.90;;;;;;5031807;28;20263;-72
2022/12/07 10:53:18;;;;;;;2.00;1.42;;;8.30;33.60;;;;;;5030967;28;20602;-73
2022/12/07 10:56:18;;;;;;;1.70;1.00;;;9.10;33.00;;;;;;5026343;28;20171;-73
2022/12/07 10:58:55;;;;;;;1.90;1.25;;;9.40;31.30;;;;;;5012558;28;20181;-73
2022/12/07 11:01:32;;;;;;;1.80;1.10;;;9.50;31.40;;;;;;5020342;28;20201;-73
2022/12/07 11:04:35;;;;;;;1.80;1.20;;;9.70;30.30;;;;;;5030918;28;20212;-73
2022/12/07 11:07:34;;;;;;;1.77;1.10;;;8.50;32.70;;;;;;5028703;28;20173;-73
2022/12/07 11:10:15;;;;;;;1.70;1.10;;;7.40;35.40;;;;;;4906770;28;20212;-73
2022/12/07 11:13:01;;;;;;;1.80;1.13;;;7.80;35.60;;;;;;5030453;28;20579;-73
2022/12/07 11:15:45;;;;;;;2.40;1.50;;;7.50;35.50;;;;;;5031982;28;20177;-73
2022/12/07 11:18:13;;;;;;;1.70;1.10;;;7.90;35.60;;;;;;5030538;28;20231;-72
2022/12/07 11:21:20;;;;;;;2.00;1.33;;;8.80;33.20;;;;;;5031018;28;20201;-72
2022/12/07 11:23:46;;;;;;;1.70;1.10;;;8.70;32.50;;;;;;4967422;28;20186;-73
2022/12/07 11:26:38;;;;;;;2.00;1.30;;;9.00;32.50;;;;;;5018217;28;20202;-73
2022/12/07 11:29:36;;;;;;;1.70;1.10;;;9.50;31.40;;;;;;5031730;28;20224;-72
2022/12/07 11:32:14;;;;;;;1.80;1.30;;;9.70;31.20;;;;;;5031887;28;20200;-73
2022/12/07 11:35:02;;;;;;;1.70;1.10;;;9.00;32.50;;;;;;5025685;28;20249;-73
2022/12/07 11:37:33;;;;;;;2.25;1.55;;;8.20;33.50;;;;;;5032042;28;20724;-74
2022/12/07 11:40:04;;;;;;;1.67;1.10;;;8.60;32.50;;;;;;5031594;28;20287;-73
2022/12/07 11:42:46;;;;;;;1.70;1.10;;;8.70;33.10;;;;;;5028153;28;20184;-72
2022/12/07 11:45:23;;;;;;;2.03;1.40;;;8.70;33.20;;;;;;5039689;28;20176;-73
2022/12/07 11:48:01;;;;;;;3.25;2.20;;;8.60;33.30;;;;;;5037454;28;20734;-73
2022/12/07 11:50:38;;;;;;;1.80;1.20;;;8.10;34.10;;;;;;5029448;28;20326;-72
2022/12/07 11:53:13;;;;;;;3.03;1.90;;;8.20;34.50;;;;;;5031065;28;20204;-72
2022/12/07 11:56:12;;;;;;;1.80;1.10;;;8.30;34.60;;;;;;5035056;28;20203;-72
2022/12/07 11:58:49;;;;;;;2.00;1.20;;;9.10;33.80;;;;;;4950703;28;20192;-72
2022/12/07 12:01:30;;;;;;;2.70;1.90;;;9.20;31.80;;;;;;4948021;29;20251;-73
2022/12/07 12:04:02;;;;;;;1.80;1.20;;;9.30;31.90;;;;;;4952934;28;20211;-72
2022/12/07 12:06:27;;;;;;;1.73;1.10;;;9.70;31.40;;;;;;4970234;28;20193;-72
2022/12/07 12:09:12;;;;;;;1.90;1.30;;;9.30;32.70;;;;;;4948701;28;20290;-73
2022/12/07 12:12:10;;;;;;;1.85;1.20;;;10.00;30.00;;;;;;4950747;28;20685;-72
2022/12/07 12:15:02;;;;;;;2.50;1.40;;;8.80;32.30;;;;;;4949043;29;20194;-72
2022/12/07 12:17:59;;;;;;;1.90;1.30;;;8.80;33.80;;;;;;4945003;29;20215;-72
2022/12/07 12:20:30;;;;;;;2.00;1.33;;;9.00;32.50;;;;;;4957672;28;20564;-72
2022/12/07 12:23:15;;;;;;;1.90;1.20;;;9.20;32.70;;;;;;4940130;28;20214;-73
2022/12/07 12:26:03;;;;;;;2.05;1.40;;;9.90;31.10;;;;;;4964047;28;20180;-72
2022/12/07 12:28:39;;;;;;;1.80;1.10;;;10.60;29.00;;;;;;4970081;28;20604;-71
2022/12/07 12:31:10;;;;;;;1.90;1.30;;;10.00;30.30;;;;;;4964197;28;20195;-71
2022/12/07 12:33:37;;;;;;;1.80;1.00;;;10.00;29.40;;;;;;4972943;28;20214;-71
2022/12/07 12:36:17;;;;;;;2.25;1.60;;;9.30;32.40;;;;;;5033868;28;20662;-72
2022/12/07 12:39:06;;;;;;;1.90;1.20;;;10.00;29.60;;;;;;5035099;28;20227;-72
2022/12/07 12:42:05;;;;;;;1.90;1.20;;;10.00;29.80;;;;;;5028235;28;20748;-72
2022/12/07 12:44:29;;;;;;;1.80;1.10;;;9.80;31.70;;;;;;5033646;28;20188;-72
2022/12/07 12:46:56;;;;;;;1.90;1.20;;;9.50;32.30;;;;;;5034951;28;20225;-72
2022/12/07 12:49:22;;;;;;;1.80;1.15;;;9.70;31.20;;;;;;5035570;28;20179;-73
2022/12/07 12:51:49;;;;;;;1.80;1.10;;;9.00;32.50;;;;;;5033323;28;20566;-73
2022/12/07 12:54:22;;;;;;;1.98;1.20;;;8.50;34.10;;;;;;5033170;28;20218;-71
2022/12/07 12:57:08;;;;;;;2.20;1.30;;;8.40;34.80;;;;;;5033506;28;20184;-72
2022/12/07 12:59:37;;;;;;;1.80;1.10;;;9.10;32.90;;;;;;5033109;28;20701;-71
2022/12/07 13:02:22;;;;;;;1.73;1.10;;;9.10;32.60;;;;;;5033573;28;20194;-72
2022/12/07 13:04:50;;;;;;;1.90;1.20;;;8.90;33.70;;;;;;5029907;28;20206;-72
2022/12/07 13:07:44;;;;;;;1.80;1.10;;;8.90;33.10;;;;;;5034113;28;20198;-73
2022/12/07 13:10:30;;;;;;;1.80;1.10;;;8.70;33.00;;;;;;5029870;28;21628;-72
2022/12/07 13:13:10;;;;;;;1.70;1.10;;;8.50;35.20;;;;;;5038378;28;20232;-72
2022/12/07 13:15:58;;;;;;;1.95;1.30;;;8.20;35.70;;;;;;5046232;28;20261;-73
2022/12/07 13:18:30;;;;;;;1.80;1.10;;;8.50;34.30;;;;;;5033177;28;20722;-72
2022/12/07 13:20:59;;;;;;;1.80;1.00;;;8.50;35.30;;;;;;5032474;28;20617;-73
2022/12/07 13:23:50;;;;;;;1.83;1.17;;;9.20;32.60;;;;;;5038735;28;20368;-71
2022/12/07 13:26:32;;;;;;;1.73;1.10;;;9.40;32.20;;;;;;5023248;28;20182;-72
2022/12/07 13:29:07;;;;;;;1.70;1.10;;;8.90;32.70;;;;;;5012936;28;20238;-72
2022/12/07 13:31:36;;;;;;;1.83;1.27;;;9.50;32.10;;;;;;5030564;28;20198;-72